createdAt,value
2019-05-30T00:03:00.180Z,38.9
2019-05-30T00:08:14.357Z,38.2
2019-05-30T00:13:25.928Z,38.9
2019-05-30T00:18:37.491Z,37.7
2019-05-30T00:23:52.035Z,38.9
2019-05-30T00:29:04.429Z,39
2019-05-30T00:34:15.747Z,39
2019-05-30T00:39:27.396Z,39.6
2019-05-30T00:44:38.974Z,39.7
2019-05-30T00:49:51.758Z,39.5
2019-05-30T00:55:03.337Z,38.8
2019-05-30T01:00:14.624Z,38.8
2019-05-30T01:05:27.937Z,39.5
2019-05-30T01:10:38.947Z,38.7
2019-05-30T01:15:50.505Z,38.1
2019-05-30T01:21:03.234Z,38.5
2019-05-30T01:26:16.991Z,38.6
2019-05-30T01:31:28.551Z,37.2
2019-05-30T01:36:40.119Z,37.1
2019-05-30T01:41:51.406Z,38.1
2019-05-30T01:47:02.704Z,37.7
2019-05-30T01:52:24.020Z,37.1
2019-05-30T01:57:38.033Z,39.3
2019-05-30T02:02:49.607Z,38.8
2019-05-30T02:08:03.023Z,38.6
2019-05-30T02:13:14.730Z,39.3
2019-05-30T02:18:26.301Z,38.8
2019-05-30T02:23:39.340Z,38.7
2019-05-30T02:28:50.062Z,37.9
2019-05-30T02:39:21.847Z,37.9
2019-05-30T02:44:34.178Z,37
2019-05-30T02:49:45.983Z,37.9
2019-05-30T02:54:57.543Z,37.9
2019-05-30T03:00:18.535Z,37.7
2019-05-30T03:05:30.073Z,37.4
2019-05-30T03:10:41.633Z,38
2019-05-30T03:15:53.199Z,37.3
2019-05-30T03:21:13.346Z,38.1
2019-05-30T03:26:26.124Z,38.6
2019-05-30T03:31:37.408Z,37.4
2019-05-30T03:36:48.737Z,38
2019-05-30T03:42:00.031Z,38.3
2019-05-30T03:47:18.182Z,37.5
2019-05-30T03:52:28.914Z,37.2
2019-05-30T03:57:40.213Z,36.9
2019-05-30T04:02:59.670Z,35.5
2019-05-30T04:08:16.326Z,35.4
2019-05-30T04:13:27.354Z,35.5
2019-05-30T04:18:38.093Z,36.3
2019-05-30T04:23:49.665Z,35.8
2019-05-30T04:29:00.939Z,35.6
2019-05-30T04:34:17.084Z,36.7
2019-05-30T04:39:29.252Z,36.4
2019-05-30T04:44:47.484Z,36.6
2019-05-30T04:49:58.489Z,37.3
2019-05-30T04:55:20.973Z,36.4
2019-05-30T05:00:33.776Z,37.2
2019-05-30T05:05:45.344Z,37.6
2019-05-30T05:10:56.707Z,36.7
2019-05-30T05:16:36.594Z,37.3
2019-05-30T05:21:48.181Z,37.4
2019-05-30T05:26:59.752Z,37.6
2019-05-30T05:32:11.323Z,37.4
2019-05-30T05:37:25.065Z,37.1
2019-05-30T05:42:36.562Z,37.7
2019-05-30T05:47:48.152Z,37.3
2019-05-30T05:52:59.713Z,37.2
2019-05-30T05:58:11.002Z,37.2
2019-05-30T06:03:24.135Z,36
2019-05-30T06:08:34.917Z,36.1
2019-05-30T06:13:46.211Z,36.8
2019-05-30T06:18:57.775Z,36
2019-05-30T06:24:09.345Z,36
2019-05-30T06:29:22.097Z,36
2019-05-30T06:34:40.398Z,35.8
2019-05-30T06:39:51.734Z,36.3
2019-05-30T06:45:03.305Z,36.7
2019-05-30T06:50:14.961Z,36.7
2019-05-30T06:55:27.411Z,36.1
2019-05-30T07:00:38.711Z,36.7
2019-05-30T07:05:51.530Z,36.4
2019-05-30T07:11:03.029Z,36.4
2019-05-30T07:16:14.342Z,36.7
2019-05-30T07:21:26.145Z,36.5
2019-05-30T07:26:37.721Z,37.3
2019-05-30T07:31:49.292Z,36.7
2019-05-30T07:37:00.567Z,37.2
2019-05-30T07:42:11.859Z,36.1
2019-05-30T07:47:23.433Z,35.9
2019-05-30T07:52:35.773Z,37.6
2019-05-30T07:57:47.064Z,37.7
2019-05-30T08:02:58.362Z,38
2019-05-30T08:08:09.643Z,37.2
2019-05-30T08:13:20.930Z,37.9
2019-05-30T08:18:32.311Z,37.4
2019-05-30T08:23:44.353Z,37.4
2019-05-30T08:28:55.637Z,37
2019-05-30T08:34:07.204Z,37.6
2019-05-30T08:39:18.212Z,37.2
2019-05-30T08:44:31.550Z,37.5
2019-05-30T08:49:42.842Z,38
2019-05-30T08:54:54.137Z,37.3
2019-05-30T09:00:05.465Z,38.2
2019-05-30T09:05:16.748Z,38.2
2019-05-30T09:10:27.773Z,37.4
2019-05-30T09:15:41.694Z,37.9
2019-05-30T09:20:53.342Z,37.4
2019-05-30T09:26:04.624Z,37.9
2019-05-30T09:31:16.197Z,37.3
2019-05-30T09:36:27.765Z,37.5
2019-05-30T09:41:43.730Z,37.6
2019-05-30T09:46:57.187Z,37.6
2019-05-30T09:52:08.447Z,37.9
2019-05-30T09:57:20.012Z,37.7
2019-05-30T10:02:31.321Z,38.3
2019-05-30T10:07:47.425Z,38.6
2019-05-30T10:12:59.158Z,37.6
2019-05-30T10:18:10.447Z,37.5
2019-05-30T10:23:21.731Z,37.3
2019-05-30T10:28:33.029Z,38.2
2019-05-30T10:33:49.327Z,37.9
2019-05-30T10:39:01.295Z,37.8
2019-05-30T10:44:12.834Z,38.1
2019-05-30T10:49:35.899Z,37.3
2019-05-30T10:54:49.853Z,37.3
2019-05-30T11:00:01.151Z,36.2
2019-05-30T11:10:33.454Z,36.6
2019-05-30T11:15:44.629Z,35.5
2019-05-30T11:20:58.968Z,35.5
2019-05-30T11:26:10.533Z,36.3
2019-05-30T11:36:42.282Z,36.4
2019-05-30T11:41:55.263Z,36
2019-05-30T11:47:06.824Z,36.6
2019-05-30T11:52:18.397Z,36.9
2019-05-30T11:57:29.965Z,36
2019-05-30T12:02:41.244Z,36.2
2019-05-30T12:07:55.242Z,35.4
2019-05-30T12:13:06.251Z,35.6
2019-05-30T12:18:17.823Z,35.6
2019-05-30T12:23:29.387Z,36
2019-05-30T12:28:40.666Z,35.9
2019-05-30T12:33:54.204Z,36.2
2019-05-30T12:39:05.810Z,35.9
2019-05-30T12:44:16.819Z,36.4
2019-05-30T12:49:28.398Z,36.6
2019-05-30T12:54:39.679Z,37.1
2019-05-30T12:59:51.272Z,37.5
2019-05-30T13:05:03.671Z,36.9
2019-05-30T13:10:14.957Z,37
2019-05-30T13:15:26.255Z,37.1
2019-05-30T13:20:37.540Z,36.9
2019-05-30T13:25:48.821Z,37.4
2019-05-30T13:31:02.288Z,37.3
2019-05-30T13:36:13.872Z,35.9
2019-05-30T13:41:24.883Z,36.6
2019-05-30T13:46:35.890Z,35.7
2019-05-30T13:51:47.174Z,36
2019-05-30T13:56:59.540Z,36.3
2019-05-30T14:02:14.260Z,35.4
2019-05-30T14:07:25.515Z,35.9
2019-05-30T14:12:37.082Z,36.1
2019-05-30T14:17:48.085Z,36.2
2019-05-30T14:22:59.088Z,34.6
2019-05-30T14:28:11.738Z,33.9
2019-05-30T14:33:23.553Z,33.8
2019-05-30T14:38:34.562Z,33.5
2019-05-30T14:43:45.838Z,32.8
2019-05-30T14:48:57.392Z,32.5
2019-05-30T14:54:09.512Z,33.6
2019-05-30T14:59:20.808Z,32.9
2019-05-30T15:04:31.602Z,32.6
2019-05-30T15:09:43.262Z,33.3
2019-05-30T15:14:53.995Z,34.2
2019-05-30T15:20:07.765Z,33.9
2019-05-30T15:25:18.830Z,32.8
2019-05-30T15:30:30.109Z,33.5
2019-05-30T15:35:41.116Z,33.2
2019-05-30T15:40:52.126Z,33.5
2019-05-30T15:46:03.196Z,34.2
2019-05-30T15:51:15.019Z,33.9
2019-05-30T15:56:26.308Z,33.6
2019-05-30T16:01:37.604Z,33.5
2019-05-30T16:06:49.173Z,33.9
2019-05-30T16:12:00.448Z,34.4
2019-05-30T16:17:13.711Z,35
2019-05-30T16:22:25.078Z,34.7
2019-05-30T16:27:36.370Z,34.3
2019-05-30T16:32:47.931Z,35.2
2019-05-30T16:37:59.532Z,34.1
2019-05-30T16:43:10.821Z,35
2019-05-30T16:48:22.924Z,34.8
2019-05-30T16:53:34.196Z,34.7
2019-05-30T16:58:45.249Z,34.9
2019-05-30T17:03:56.536Z,34.1
2019-05-30T17:09:07.815Z,34.1
2019-05-30T17:14:20.100Z,33.6
2019-05-30T17:19:31.698Z,33.9
2019-05-30T17:24:42.998Z,33.1
2019-05-30T17:29:53.999Z,33.9
2019-05-30T17:35:05.006Z,33.2
2019-05-30T17:40:16.297Z,32.7
2019-05-30T17:45:29.324Z,33.2
2019-05-30T17:50:40.998Z,34
2019-05-30T17:55:52.289Z,34.1
2019-05-30T18:01:03.674Z,33.9
2019-05-30T18:06:14.922Z,35
2019-05-30T18:11:27.634Z,35.2
2019-05-30T18:16:38.599Z,35
2019-05-30T18:21:52.927Z,35.4
2019-05-30T18:27:03.889Z,34.7
2019-05-30T18:32:15.167Z,34.1
2019-05-30T18:37:26.651Z,34.6
2019-05-30T18:42:37.389Z,34.6
2019-05-30T18:47:48.941Z,35.4
2019-05-30T18:52:59.666Z,35.3
2019-05-30T18:58:10.403Z,34.4
2019-05-30T19:03:21.141Z,34.2
2019-05-30T19:08:33.938Z,34.6
2019-05-30T19:13:45.113Z,34.8
2019-05-30T19:18:56.410Z,34.5
2019-05-30T19:24:07.422Z,34.4
2019-05-30T19:29:18.424Z,34.7
2019-05-30T19:34:30.847Z,34
2019-05-30T19:39:41.848Z,33.8
2019-05-30T19:44:53.409Z,34.8
2019-05-30T19:50:04.755Z,35.3
2019-05-30T19:55:16.031Z,36.2
2019-05-30T20:00:27.593Z,35.6
2019-05-30T20:05:40.915Z,35.8
2019-05-30T20:10:51.946Z,36.6
2019-05-30T20:16:02.678Z,36.7
2019-05-30T20:21:13.964Z,35.6
2019-05-30T20:26:24.691Z,35.9
2019-05-30T20:31:37.687Z,35.9
2019-05-30T20:36:48.970Z,36.3
2019-05-30T20:42:00.391Z,36.9
2019-05-30T20:47:11.365Z,37
2019-05-30T20:52:22.361Z,36.1
2019-05-30T20:57:36.154Z,37.1
2019-05-30T21:02:48.177Z,36.1
2019-05-30T21:07:59.185Z,37.2
2019-05-30T21:13:10.471Z,37.3
2019-05-30T21:18:21.803Z,37.2
2019-05-30T21:23:32.811Z,37.2
2019-05-30T21:28:45.924Z,36.4
2019-05-30T21:33:57.551Z,37.2
2019-05-30T21:39:09.099Z,36.8
2019-05-30T21:44:20.396Z,37.3
2019-05-30T21:49:31.958Z,36.4
2019-05-30T21:54:45.743Z,37.2
2019-05-30T21:59:56.874Z,36.4
2019-05-30T22:05:08.162Z,36.8
2019-05-30T22:10:20.927Z,37.2
2019-05-30T22:15:32.479Z,37.1
2019-05-30T22:20:53.861Z,37.1
2019-05-30T22:26:11.083Z,38.2
2019-05-30T22:31:22.653Z,37.6
2019-05-30T22:36:40.046Z,38.4
2019-05-30T22:41:53.011Z,37.6
2019-05-30T22:47:04.575Z,38.7
2019-05-30T22:52:16.155Z,37.9
2019-05-30T22:57:27.737Z,38.7
2019-05-30T23:02:39.293Z,38.2
2019-05-30T23:07:51.918Z,38.3
2019-05-30T23:13:03.481Z,39
2019-05-30T23:18:17.739Z,38.9
2019-05-30T23:23:29.350Z,38.4
2019-05-30T23:28:40.938Z,39.1
2019-05-30T23:33:54.637Z,38.4
2019-05-30T23:39:06.200Z,39.1
2019-05-30T23:44:17.782Z,38.6
2019-05-30T23:54:54.174Z,39.7
